• Join FlightAware (Why Join?)
  • Login
  • US Flag 
11:10PM EDT


 

Airport Tracker/Info


-or-


 

Live Flight TrackerFlight Track Log ✈ N400PU ✈ 24-Nov-2013 ✈ KMCI - KLAF

Flight Track Log - Related Links

Times and Time Zones

All times are in EST time to prevent confusion due to time zone crossing. See the N400PU flight status page for this flight to view local times or setup timezone preferences in your user account.

Time Position Orientation Groundspeed Altitude Reporting Facility
EST Latitude Longitude Course Direction KTS MPH feet Rate Location/Type
10:06PM 39.3000 -94.7333 173° South 168 193 1,800  Level Kansas City TRACON
10:07PM 39.2672 -94.7283 173° South 174 200 4,200 2,760 Climbing Kansas City Center
10:08PM 39.2183 -94.7106 164° South 189 217 6,900 2,400 Climbing Kansas City Center
10:09PM 39.2117 -94.6011 94° East 283 326 9,200 2,160 Climbing Kansas City Center
10:10PM 39.2378 -94.5056 71° East 304 350 11,400 1,860 Climbing Kansas City Center
10:11PM 39.2772 -94.4092 62° Northeast 316 364 13,000 1,620 Climbing Kansas City Center
10:12PM 39.3269 -94.2950 61° Northeast 326 375 14,800 1,620 Climbing Kansas City Center
10:13PM 39.3564 -94.1875 70° East 333 383 16,300 1,560 Climbing Kansas City Center
10:14PM 39.3714 -94.0753 80° East 332 382 18,000 1,260 Climbing Kansas City Center
10:15PM 39.3878 -93.9400 81° East 341 392 18,900 1,020 Climbing Kansas City Center
10:16PM 39.4031 -93.8161 81° East 362 417 20,100 1,260 Climbing Kansas City Center
10:17PM 39.4208 -93.6792 80° East 385 443 21,500 1,320 Climbing Kansas City Center
10:18PM 39.4375 -93.5417 81° East 390 449 22,800 1,080 Climbing Kansas City Center
10:19PM 39.4550 -93.4014 81° East 394 453 23,800 960 Climbing Kansas City Center
10:20PM 39.4731 -93.2628 80° East 397 457 24,800 1,080 Climbing Kansas City Center
10:21PM 39.4886 -93.1192 82° East 404 465 26,000 1,200 Climbing Kansas City Center
10:22PM 39.5083 -92.9442 82° East 411 473 27,300 1,080 Climbing Kansas City Center
10:23PM 39.5247 -92.7931 82° East 420 483 28,300 1,020 Climbing Kansas City Center
10:24PM 39.5428 -92.6392 81° East 431 496 29,400 1,020 Climbing Kansas City Center
10:25PM 39.5608 -92.4819 81° East 439 505 30,400 960 Climbing Kansas City Center
10:26PM 39.5783 -92.3211 82° East 448 516 31,400 1,020 Climbing Kansas City Center
10:27PM 39.5967 -92.1589 82° East 455 524 32,500 1,020 Climbing Kansas City Center
10:28PM 39.6147 -91.9942 82° East 461 531 33,500 960 Climbing Kansas City Center
10:29PM 39.6317 -91.8306 82° East 463 533 34,500 720 Climbing Kansas City Center
10:30PM 39.6525 -91.6303 82° East 468 539 35,000 240 Climbing Kansas City Center
10:31PM 39.6694 -91.4569 83° East 479 551 35,000  Level Kansas City Center
10:32PM 39.6872 -91.2881 82° East 494 568 35,000  Level Kansas City Center
10:33PM 39.7069 -91.1011 82° East 510 587 35,000  Level Kansas City Center
10:34PM 39.7253 -90.9150 83° East 516 594 35,000  Level Kansas City Center
10:35PM 39.7431 -90.7297 83° East 517 595 35,000  Level Kansas City Center
10:36PM 39.7625 -90.5278 83° East 517 595 35,000  Level Kansas City Center
10:37PM 39.7806 -90.3414 83° East 521 600 35,000  Level Kansas City Center
10:38PM 39.7972 -90.1528 83° East 524 603 35,000  Level Kansas City Center
10:39PM 39.8144 -89.9625 83° East 529 609 35,000  Level Kansas City Center
10:40PM 39.8314 -89.7758 83° East 527 606 35,000  Level Kansas City Center
10:41PM 39.8594 -89.5933 79° East 521 600 35,000 -60 Level Kansas City Center
10:42PM 39.8986 -89.4128 74° East 521 600 34,900 -840 Descending Kansas City Center
10:43PM 39.9381 -89.2314 74° East 524 603 33,400 -1,680 Descending Kansas City Center
10:44PM 39.9675 -89.0906 75° East 518 596 32,200 -1,860 Descending Chicago Center
10:45PM 40.0056 -88.9122 74° East 514 592 30,400 -1,920 Descending Chicago Center
10:46PM 40.0436 -88.7394 74° East 501 577 28,400 -2,220 Descending Chicago Center
10:47PM 40.0792 -88.5692 75° East 490 564 26,000 -2,460 Descending Chicago Center
10:48PM 40.1156 -88.4000 74° East 487 560 23,400 -2,700 Descending Chicago Center
10:49PM 40.1525 -88.2350 74° East 479 551 20,600 -2,760 Descending Chicago Center
10:50PM 40.1922 -88.0750 72° East 441 507 17,800 -2,940 Descending Chicago Center
10:51PM 40.2283 -87.9197 73° East 433 498 14,700 -3,060 Descending Chicago Center
10:52PM 40.2597 -87.7850 73° East 395 455 11,600 -2,700 Descending Chicago Center
10:53PM 40.2869 -87.6708 73° East 339 390 9,300 -1,920 Descending Chicago Center
10:54PM 40.3100 -87.5694 73° East 301 346 7,800 -1,320 Descending Chicago Center
10:55PM 40.3294 -87.4850 73° East 253 291 6,700 -1,140 Descending Chicago Center
10:56PM 40.3469 -87.4119 73° East 229 264 5,600 -840 Descending Chicago Center
10:57PM 40.3625 -87.3386 74° East 215 247 5,000 -540 Descending Chicago Center
10:58PM 40.3800 -87.2603 74° East 218 251 4,600 -660 Descending Chicago Center
10:59PM 40.4006 -87.1736 73° East 235 270 3,700 -840 Descending Chicago Center
11:00PM 40.4194 -87.0900 73° East 223 257 2,900 -540 Descending Chicago Center
11:01PM 40.4372 -87.0208 71° East 218 251 2,700 -240 Descending Chicago Center
11:03PM 40.4123 -86.9369 72° East  Level Estimated
11:10PM 40.4123 -86.9369 72° East  Level Estimated